Time;durP1;ratioP1;P1;durP2;ratioP2;P2;SDS_P1;SDS_P2;PMS_P1;PMS_P2;Temp;Humidity;BMP_temperature;BMP_pressure;BME280_temperature;BME280_humidity;BME280_pressure;Samples;Min_cycle;Max_cycle;Signal;HPM_P1;HPM_P2
2022/05/24 00:01:25;;;;;;;3.78;1.80;;;14.00;99.90;;;;;;6274939;22;20008;-81
2022/05/24 00:03:51;;;;;;;3.42;2.03;;;14.00;99.90;;;;;;6248338;22;20023;-81
2022/05/24 00:06:17;;;;;;;7.28;2.17;;;14.00;99.90;;;;;;6275567;22;20011;-82
2022/05/24 00:08:43;;;;;;;4.97;2.40;;;14.00;99.90;;;;;;6223146;22;20348;-83
2022/05/24 00:11:08;;;;;;;6.13;3.30;;;14.00;99.90;;;;;;6249103;22;20012;-83
2022/05/24 00:13:34;;;;;;;8.68;5.13;;;14.00;99.90;;;;;;6224056;22;20046;-83
2022/05/24 00:16:00;;;;;;;12.00;6.65;;;14.00;99.90;;;;;;6224255;22;20004;-83
2022/05/24 00:18:29;;;;;;;16.38;8.82;;;14.00;99.90;;;;;;6276611;22;20506;-84
2022/05/24 00:20:58;;;;;;;13.57;8.32;;;14.00;99.90;;;;;;6224295;22;20015;-83
2022/05/24 00:23:26;;;;;;;15.80;7.88;;;14.00;99.90;;;;;;6250197;22;20022;-83
2022/05/24 00:25:54;;;;;;;15.45;8.68;;;14.00;99.90;;;;;;6223513;22;20448;-83
2022/05/24 00:28:22;;;;;;;16.58;9.18;;;14.00;99.90;;;;;;6249511;22;20054;-84
2022/05/24 00:30:49;;;;;;;14.52;8.60;;;13.90;99.90;;;;;;6249041;22;20014;-84
2022/05/24 00:33:15;;;;;;;14.52;8.77;;;13.90;99.90;;;;;;6249054;22;20016;-83
2022/05/24 00:35:42;;;;;;;15.10;8.13;;;13.90;99.90;;;;;;6249378;22;20018;-84
2022/05/24 00:38:10;;;;;;;15.50;8.15;;;13.90;99.90;;;;;;6248478;22;20022;-84
2022/05/24 00:40:44;;;;;;;16.15;7.70;;;13.90;99.90;;;;;;6223254;22;20019;-82
2022/05/24 00:43:29;;;;;;;10.55;6.70;;;13.80;99.90;;;;;;6223525;22;20233;-83
2022/05/24 00:46:02;;;;;;;11.40;7.38;;;13.80;99.90;;;;;;6223768;22;20046;-84
2022/05/24 00:48:32;;;;;;;9.43;6.57;;;13.70;99.90;;;;;;6248913;22;20078;-83
2022/05/24 00:51:01;;;;;;;22.83;7.80;;;13.80;99.90;;;;;;6248659;22;20012;-83
2022/05/24 00:53:35;;;;;;;13.50;6.80;;;13.80;99.90;;;;;;6223743;22;20050;-83
2022/05/24 00:56:31;;;;;;;12.98;6.60;;;13.80;99.90;;;;;;6223963;22;20018;-84
2022/05/24 00:59:03;;;;;;;12.93;6.63;;;13.70;99.90;;;;;;6239229;22;20463;-84
2022/05/24 01:01:42;;;;;;;;;;;13.70;99.90;;;;;;6223864;22;20095;-83
2022/05/24 01:04:11;;;;;;;10.32;6.00;;;13.70;99.90;;;;;;6223109;22;19918;-84
2022/05/24 01:06:37;;;;;;;12.85;6.25;;;13.60;99.90;;;;;;6223911;22;20061;-84
2022/05/24 01:09:10;;;;;;;9.10;5.13;;;13.60;99.90;;;;;;6249174;22;20020;-81
2022/05/24 01:11:42;;;;;;;9.25;6.20;;;13.60;99.90;;;;;;6249213;22;20441;-84
2022/05/24 01:14:09;;;;;;;10.70;6.22;;;13.60;99.90;;;;;;6250882;22;20015;-83
2022/05/24 01:16:35;;;;;;;12.82;6.40;;;13.50;99.90;;;;;;6250989;22;20607;-84
2022/05/24 01:19:04;;;;;;;12.70;7.13;;;13.50;99.90;;;;;;6250626;22;20008;-83
2022/05/24 01:21:31;;;;;;;8.65;5.95;;;13.50;99.90;;;;;;6225553;22;20015;-83
2022/05/24 01:24:05;;;;;;;10.27;6.43;;;13.40;99.90;;;;;;6250836;22;20011;-83
2022/05/24 01:26:50;;;;;;;11.48;6.32;;;13.40;99.90;;;;;;6225286;22;20061;-83
2022/05/24 01:29:18;;;;;;;10.63;5.90;;;13.50;99.90;;;;;;6250140;22;20003;-83
2022/05/24 01:37:14;;;;;;;12.15;6.57;;;13.50;99.90;;;;;;6250481;22;20407;-84
2022/05/24 01:39:43;;;;;;;12.93;6.35;;;13.50;99.90;;;;;;6224914;22;20329;-84
2022/05/24 01:42:09;;;;;;;8.65;5.78;;;13.40;99.90;;;;;;6250127;22;20011;-84
2022/05/24 01:44:46;;;;;;;10.38;5.70;;;13.40;99.90;;;;;;6250300;22;20027;-83
2022/05/24 01:47:13;;;;;;;9.20;5.63;;;13.40;99.90;;;;;;6250823;22;20065;-83
2022/05/24 01:49:42;;;;;;;13.27;6.90;;;13.40;99.90;;;;;;6225344;22;20384;-83
2022/05/24 01:52:22;;;;;;;13.02;7.13;;;13.50;99.90;;;;;;6225177;22;20047;-82
2022/05/24 01:54:52;;;;;;;18.70;7.60;;;13.40;99.90;;;;;;6251285;22;20057;-83
2022/05/24 01:57:22;;;;;;;17.33;8.85;;;13.50;99.90;;;;;;6225911;22;20012;-84
2022/05/24 01:59:51;;;;;;;16.38;10.43;;;13.50;99.90;;;;;;6251296;22;20023;-83
2022/05/24 02:02:17;;;;;;;21.80;10.77;;;13.50;99.90;;;;;;6224985;22;20117;-83
2022/05/24 02:04:43;;;;;;;18.88;11.45;;;13.60;99.90;;;;;;6251201;22;20504;-83
2022/05/24 02:07:16;;;;;;;21.45;12.20;;;13.60;99.90;;;;;;6250436;22;20083;-83
2022/05/24 02:09:45;;;;;;;20.77;11.68;;;13.60;99.90;;;;;;6225247;22;20008;-83
2022/05/24 02:12:27;;;;;;;24.40;13.02;;;13.60;99.90;;;;;;6226336;22;20059;-82
2022/05/24 02:15:04;;;;;;;29.05;14.82;;;13.60;99.90;;;;;;6235830;22;20004;-82
2022/05/24 02:17:39;;;;;;;23.48;13.93;;;13.60;99.90;;;;;;6251855;22;20007;-82
2022/05/24 02:20:08;;;;;;;26.02;14.35;;;13.70;99.90;;;;;;6250530;22;20016;-83
2022/05/24 02:22:34;;;;;;;27.50;14.88;;;13.70;99.90;;;;;;6227095;22;20023;-83
2022/05/24 02:25:05;;;;;;;27.17;15.45;;;13.70;99.90;;;;;;6225966;22;20012;-83
2022/05/24 02:27:30;;;;;;;27.27;14.70;;;13.70;99.90;;;;;;6223911;22;20035;-82
2022/05/24 02:29:57;;;;;;;35.78;15.13;;;13.80;99.90;;;;;;6223804;22;20473;-82
2022/05/24 02:32:23;;;;;;;27.40;14.77;;;13.70;99.90;;;;;;6223277;22;20594;-83
2022/05/24 02:34:48;;;;;;;25.52;14.65;;;13.80;99.90;;;;;;6223516;22;20012;-82
2022/05/24 02:37:14;;;;;;;28.52;15.50;;;13.80;99.90;;;;;;6223188;22;20019;-82
2022/05/24 02:42:24;;;;;;;24.95;14.32;;;13.80;99.90;;;;;;6248811;22;20441;-82
2022/05/24 02:44:49;;;;;;;30.45;16.58;;;13.80;99.90;;;;;;6223189;22;20015;-82
2022/05/24 02:47:16;;;;;;;29.73;15.35;;;13.80;99.90;;;;;;6248827;22;20344;-83
2022/05/24 02:49:41;;;;;;;25.15;15.25;;;13.80;99.90;;;;;;6248207;22;20031;-82
2022/05/24 02:52:07;;;;;;;28.08;16.08;;;13.80;99.90;;;;;;6222876;22;20358;-82
2022/05/24 02:54:33;;;;;;;25.63;14.50;;;13.80;99.90;;;;;;6248419;22;20441;-82
2022/05/24 02:57:01;;;;;;;25.60;14.38;;;13.80;99.90;;;;;;6223367;22;20090;-82
2022/05/24 02:59:27;;;;;;;28.75;15.80;;;13.80;99.90;;;;;;6275730;22;20008;-82
2022/05/24 03:01:52;;;;;;;26.95;16.48;;;13.80;99.90;;;;;;6223174;22;20378;-82
2022/05/24 03:04:18;;;;;;;26.02;14.95;;;13.80;99.90;;;;;;6223439;22;20050;-82
2022/05/24 03:09:34;;;;;;;28.63;16.13;;;13.90;99.90;;;;;;6275336;22;20094;-82
2022/05/24 03:14:44;;;;;;;25.65;15.25;;;13.90;99.90;;;;;;6248002;22;20069;-81
2022/05/24 03:17:09;;;;;;;22.38;14.20;;;13.90;99.90;;;;;;6223065;22;20009;-82
2022/05/24 03:19:35;;;;;;;25.25;14.82;;;13.90;99.90;;;;;;6248069;22;20457;-80
2022/05/24 03:22:00;;;;;;;30.60;15.82;;;13.90;99.90;;;;;;6222784;22;20011;-82
2022/05/24 03:24:26;;;;;;;24.08;15.20;;;13.90;99.90;;;;;;6275094;22;20019;-81
2022/05/24 03:26:51;;;;;;;27.95;15.48;;;13.90;99.90;;;;;;6222620;22;20337;-81
2022/05/24 03:29:17;;;;;;;26.63;14.60;;;14.00;99.90;;;;;;6274399;22;20058;-81
2022/05/24 03:31:42;;;;;;;26.75;15.10;;;13.90;99.90;;;;;;6274397;22;20015;-81
2022/05/24 03:34:08;;;;;;;23.48;14.00;;;14.00;99.90;;;;;;6274118;22;20015;-80
2022/05/24 03:36:33;;;;;;;22.85;13.85;;;14.00;99.90;;;;;;6247462;22;20302;-81
2022/05/24 03:38:59;;;;;;;27.17;15.45;;;13.90;99.90;;;;;;6247608;22;20011;-81
2022/05/24 03:41:25;;;;;;;22.52;14.38;;;14.00;99.90;;;;;;6222032;22;20019;-81
2022/05/24 03:43:51;;;;;;;23.15;14.35;;;14.00;99.90;;;;;;6247790;22;20039;-81
2022/05/24 03:46:17;;;;;;;22.20;13.23;;;14.00;99.90;;;;;;6222449;22;20007;-81
2022/05/24 03:48:42;;;;;;;21.00;13.95;;;14.00;99.90;;;;;;6222524;22;20007;-81
2022/05/24 03:51:08;;;;;;;27.20;13.48;;;14.00;99.90;;;;;;6222201;22;20062;-80
2022/05/24 03:53:34;;;;;;;26.92;14.00;;;14.00;99.90;;;;;;6247755;22;20098;-81
2022/05/24 03:56:00;;;;;;;22.98;14.35;;;14.00;99.90;;;;;;6274843;22;20015;-80
2022/05/24 03:58:26;;;;;;;22.05;13.65;;;14.00;99.90;;;;;;6247874;22;20468;-81
2022/05/24 04:00:51;;;;;;;28.52;15.15;;;14.00;99.90;;;;;;6222123;22;20019;-81
2022/05/24 04:03:18;;;;;;;26.52;15.27;;;14.00;99.90;;;;;;6247371;22;20019;-81
2022/05/24 04:05:44;;;;;;;27.33;15.35;;;14.00;99.90;;;;;;6247733;22;20012;-81
2022/05/24 04:08:10;;;;;;;26.75;15.07;;;14.00;99.90;;;;;;6222483;22;20012;-82
2022/05/24 04:10:37;;;;;;;25.50;13.13;;;13.90;99.90;;;;;;6247382;22;20022;-81
2022/05/24 04:13:03;;;;;;;27.85;15.30;;;13.90;99.90;;;;;;6247179;22;20123;-80
2022/05/24 04:15:29;;;;;;;32.15;15.52;;;13.90;99.90;;;;;;6247325;22;20008;-81
2022/05/24 04:17:55;;;;;;;25.50;13.95;;;13.90;99.90;;;;;;6247850;22;20345;-81
2022/05/24 04:20:24;;;;;;;24.50;15.45;;;13.90;99.90;;;;;;6222335;22;20082;-81
2022/05/24 04:22:52;;;;;;;27.55;15.43;;;13.90;99.90;;;;;;6247469;22;20018;-81
2022/05/24 04:25:18;;;;;;;23.83;14.05;;;13.90;99.90;;;;;;6247480;22;20391;-81
2022/05/24 04:27:44;;;;;;;25.40;15.77;;;13.80;99.90;;;;;;6222411;22;20092;-80
2022/05/24 04:30:11;;;;;;;30.95;16.30;;;13.90;99.90;;;;;;6248832;22;20091;-81
2022/05/24 04:32:37;;;;;;;27.70;15.02;;;13.80;99.90;;;;;;6222774;22;20026;-80
2022/05/24 04:35:06;;;;;;;27.55;14.82;;;13.90;99.90;;;;;;6222310;22;20008;-80
2022/05/24 04:37:31;;;;;;;34.03;15.15;;;13.80;99.90;;;;;;6247477;22;20008;-81
2022/05/24 04:39:57;;;;;;;27.73;15.45;;;13.80;99.90;;;;;;6221893;22;20018;-81
2022/05/24 04:42:22;;;;;;;26.88;15.10;;;13.80;99.90;;;;;;6247367;22;20107;-81
2022/05/24 04:44:53;;;;;;;36.58;17.20;;;13.90;99.90;;;;;;6247385;22;20008;-81
2022/05/24 04:47:21;;;;;;;29.98;14.95;;;13.90;99.90;;;;;;6249177;22;20065;-81
2022/05/24 04:49:53;;;;;;;27.30;14.93;;;13.80;99.90;;;;;;6224199;22;20444;-81
2022/05/24 04:52:20;;;;;;;28.13;15.95;;;13.80;99.90;;;;;;6249752;22;20016;-81
2022/05/24 04:54:45;;;;;;;30.42;16.02;;;13.90;99.90;;;;;;6250198;22;20019;-81
2022/05/24 04:57:11;;;;;;;27.40;13.90;;;13.90;99.90;;;;;;6224688;22;20019;-81
2022/05/24 04:59:38;;;;;;;22.73;13.60;;;13.90;99.90;;;;;;6249471;22;20087;-81
2022/05/24 05:02:04;;;;;;;19.25;12.65;;;13.90;99.90;;;;;;6249707;22;20008;-82
2022/05/24 05:04:30;;;;;;;23.55;12.75;;;13.90;99.90;;;;;;6225434;22;20016;-81
2022/05/24 05:06:56;;;;;;;25.23;11.32;;;14.00;99.90;;;;;;6252540;22;20037;-81
2022/05/24 05:09:21;;;;;;;23.00;11.57;;;13.90;99.90;;;;;;6224007;22;20008;-81
2022/05/24 05:11:47;;;;;;;21.23;11.38;;;14.00;99.90;;;;;;6279255;22;20015;-81
2022/05/24 05:14:13;;;;;;;29.08;11.57;;;14.00;99.90;;;;;;6250768;22;20014;-80
2022/05/24 05:16:39;;;;;;;18.73;11.15;;;14.00;99.90;;;;;;6224640;22;20011;-81
2022/05/24 05:19:08;;;;;;;19.13;11.30;;;14.00;99.90;;;;;;6249463;22;20053;-82
2022/05/24 05:21:35;;;;;;;19.58;11.18;;;14.10;99.90;;;;;;6249135;22;20010;-81
2022/05/24 05:24:03;;;;;;;22.33;10.80;;;14.10;99.90;;;;;;6250100;22;20012;-81
2022/05/24 05:26:29;;;;;;;21.35;9.88;;;14.10;99.90;;;;;;6224396;22;20056;-81
2022/05/24 05:28:55;;;;;;;19.10;9.18;;;14.10;99.90;;;;;;6224222;22;20011;-80
2022/05/24 05:31:26;;;;;;;18.30;9.38;;;14.00;99.90;;;;;;6248972;22;20015;-81
2022/05/24 05:33:53;;;;;;;18.50;9.73;;;14.00;99.90;;;;;;6251945;22;20012;-81
2022/05/24 05:36:19;;;;;;;21.40;9.38;;;14.00;99.90;;;;;;6278897;22;20012;-81
2022/05/24 05:38:46;;;;;;;17.30;9.55;;;13.90;99.90;;;;;;6224004;22;20444;-81
2022/05/24 05:41:18;;;;;;;17.15;9.48;;;13.90;99.90;;;;;;6248781;22;20054;-81
2022/05/24 05:43:44;;;;;;;20.75;9.40;;;13.90;99.90;;;;;;6248902;22;20007;-81
2022/05/24 05:46:11;;;;;;;20.08;10.07;;;14.00;99.90;;;;;;6223611;22;20012;-81
2022/05/24 05:48:38;;;;;;;23.00;11.15;;;14.00;99.90;;;;;;6223937;22;20453;-81
2022/05/24 05:51:05;;;;;;;18.65;10.00;;;14.00;99.90;;;;;;6223174;22;20030;-81
2022/05/24 05:53:31;;;;;;;20.63;11.50;;;14.00;99.90;;;;;;6256485;22;20016;-81
2022/05/24 05:55:57;;;;;;;18.80;10.30;;;13.90;99.90;;;;;;6276505;22;19999;-81
2022/05/24 05:58:22;;;;;;;21.83;11.02;;;14.00;99.90;;;;;;6274948;22;20020;-82
2022/05/24 06:00:48;;;;;;;22.70;10.43;;;14.00;99.90;;;;;;6279935;22;20069;-81
2022/05/24 06:03:17;;;;;;;19.42;9.98;;;14.10;99.90;;;;;;6248646;22;20459;-80
2022/05/24 06:05:44;;;;;;;22.27;10.43;;;14.10;99.90;;;;;;6223605;22;20087;-81
2022/05/24 06:08:10;;;;;;;18.88;10.93;;;14.20;99.90;;;;;;6248679;22;20015;-81
2022/05/24 06:10:37;;;;;;;19.58;10.85;;;14.20;99.90;;;;;;6275620;22;20643;-81
2022/05/24 06:13:03;;;;;;;24.15;10.57;;;14.30;99.90;;;;;;6275674;22;20047;-81
2022/05/24 06:15:30;;;;;;;21.90;10.77;;;14.40;99.90;;;;;;6248629;22;20349;-81
2022/05/24 06:17:59;;;;;;;21.13;9.65;;;14.40;99.90;;;;;;6248616;22;20039;-81
2022/05/24 06:20:28;;;;;;;17.75;10.13;;;14.50;99.90;;;;;;6248545;22;20015;-81
2022/05/24 06:22:55;;;;;;;22.05;11.07;;;14.50;99.90;;;;;;6223227;22;20020;-81
2022/05/24 06:25:26;;;;;;;18.52;10.68;;;14.50;99.90;;;;;;6248375;22;20018;-82
2022/05/24 06:27:53;;;;;;;22.30;10.88;;;14.50;99.90;;;;;;6275675;22;20015;-81
2022/05/24 06:30:20;;;;;;;24.60;10.80;;;14.50;99.90;;;;;;6222698;22;20086;-81
2022/05/24 06:32:49;;;;;;;20.70;10.55;;;14.50;99.90;;;;;;6248258;22;20028;-81
2022/05/24 06:35:16;;;;;;;17.60;9.90;;;14.50;99.90;;;;;;6248514;22;20286;-81
2022/05/24 06:37:42;;;;;;;16.08;9.52;;;14.50;99.90;;;;;;6248498;22;20421;-81
2022/05/24 06:40:11;;;;;;;25.10;10.05;;;14.60;99.90;;;;;;6275386;22;20076;-81
2022/05/24 06:42:36;;;;;;;21.35;9.45;;;14.60;99.90;;;;;;6223194;22;20333;-81
2022/05/24 06:45:03;;;;;;;15.05;8.55;;;14.50;99.90;;;;;;6248529;22;20019;-81
2022/05/24 06:47:29;;;;;;;14.32;8.95;;;14.50;99.90;;;;;;6248465;22;20016;-80
2022/05/24 06:49:55;;;;;;;21.48;9.10;;;14.50;99.90;;;;;;6247743;22;20022;-81
2022/05/24 06:52:21;;;;;;;17.58;9.45;;;14.50;99.90;;;;;;6223319;22;20055;-81
2022/05/24 06:54:47;;;;;;;15.10;9.00;;;14.60;99.90;;;;;;6223075;22;20456;-81
2022/05/24 06:57:13;;;;;;;19.63;9.00;;;14.60;99.90;;;;;;6248924;22;20043;-81
2022/05/24 07:02:25;;;;;;;17.48;8.20;;;14.60;99.90;;;;;;6248027;22;20076;-81
2022/05/24 07:04:58;;;;;;;17.20;8.80;;;14.50;99.90;;;;;;6223278;22;20099;-81
2022/05/24 07:07:24;;;;;;;20.35;9.27;;;14.50;99.90;;;;;;6248260;22;20023;-81
2022/05/24 07:09:51;;;;;;;15.32;7.88;;;14.50;99.90;;;;;;6247025;22;20007;-79
2022/05/24 07:12:18;;;;;;;18.48;8.38;;;14.50;99.90;;;;;;6222654;22;20039;-79
2022/05/24 07:14:44;;;;;;;11.48;7.93;;;14.60;99.90;;;;;;6247847;22;20495;-78
2022/05/24 07:17:10;;;;;;;15.27;8.50;;;14.60;99.90;;;;;;6222709;22;20012;-79
2022/05/24 07:19:38;;;;;;;19.02;9.02;;;14.70;99.90;;;;;;6222028;22;20050;-78
2022/05/24 07:22:05;;;;;;;14.50;8.38;;;14.60;99.90;;;;;;6222637;22;20018;-78
2022/05/24 07:24:31;;;;;;;14.70;8.45;;;14.70;99.90;;;;;;6248100;22;20114;-78
2022/05/24 07:26:57;;;;;;;14.98;8.43;;;14.70;99.90;;;;;;6248145;22;20460;-79
2022/05/24 07:29:22;;;;;;;17.10;9.10;;;14.70;99.90;;;;;;6248345;22;20095;-79
2022/05/24 07:31:48;;;;;;;16.55;8.98;;;14.70;99.90;;;;;;6222761;22;20020;-78
2022/05/24 07:34:13;;;;;;;16.05;9.00;;;14.70;99.90;;;;;;6223465;22;20008;-79
2022/05/24 07:36:39;;;;;;;18.02;8.45;;;14.70;99.90;;;;;;6222632;22;20067;-78
2022/05/24 07:39:07;;;;;;;13.32;8.18;;;14.60;99.90;;;;;;6223109;22;20468;-78
2022/05/24 07:47:03;;;;;;;15.95;8.13;;;14.60;99.90;;;;;;6248487;22;20011;-78
2022/05/24 07:49:29;;;;;;;15.13;7.63;;;14.60;99.90;;;;;;6221864;22;20310;-78
2022/05/24 07:51:58;;;;;;;16.48;7.80;;;14.60;99.90;;;;;;6247769;22;20458;-80
2022/05/24 07:54:24;;;;;;;16.65;7.35;;;14.70;99.90;;;;;;6247980;22;20015;-78
2022/05/24 07:56:50;;;;;;;12.35;7.38;;;14.70;99.90;;;;;;6222940;22;20406;-78
2022/05/24 07:59:16;;;;;;;14.57;8.07;;;14.70;99.90;;;;;;6275190;22;20018;-79
2022/05/24 08:01:41;;;;;;;11.85;7.35;;;14.80;99.90;;;;;;6247375;22;20102;-78
2022/05/24 08:04:07;;;;;;;15.02;7.43;;;14.80;99.90;;;;;;6248360;22;20008;-78
2022/05/24 08:06:32;;;;;;;11.45;6.18;;;14.90;99.90;;;;;;6222908;22;20318;-79
2022/05/24 08:09:01;;;;;;;8.05;5.95;;;15.00;99.90;;;;;;6222604;22;20413;-79
2022/05/24 08:11:27;;;;;;;12.82;6.45;;;15.10;99.90;;;;;;6222535;22;20023;-79
2022/05/24 08:14:02;;;;;;;12.13;6.38;;;15.60;99.90;;;;;;6247574;22;20008;-80
2022/05/24 08:16:29;;;;;;;8.90;4.90;;;16.40;99.90;;;;;;6275169;22;20004;-79
2022/05/24 08:18:58;;;;;;;10.80;5.40;;;16.90;99.90;;;;;;6223453;22;20008;-79
2022/05/24 08:21:24;;;;;;;6.70;4.00;;;17.30;99.90;;;;;;6247873;22;20041;-79
2022/05/24 08:23:50;;;;;;;7.65;4.55;;;17.60;99.90;;;;;;6222386;22;20452;-79
2022/05/24 08:26:16;;;;;;;7.50;4.63;;;17.80;99.90;;;;;;6248269;22;20043;-80
2022/05/24 08:28:43;;;;;;;8.98;4.75;;;17.80;99.90;;;;;;6248371;22;20022;-80
2022/05/24 08:31:09;;;;;;;7.35;4.55;;;18.10;99.90;;;;;;6222664;22;20008;-79
2022/05/24 08:33:36;;;;;;;9.30;4.22;;;18.20;99.90;;;;;;6222703;22;20102;-79
2022/05/24 08:36:02;;;;;;;9.73;4.00;;;18.30;99.90;;;;;;6247953;22;20547;-78
2022/05/24 08:38:28;;;;;;;7.22;4.07;;;18.30;99.90;;;;;;6248219;22;20055;-79
2022/05/24 08:41:01;;;;;;;7.55;3.92;;;18.30;99.90;;;;;;6247423;22;20507;-79
2022/05/24 08:43:58;;;;;;;6.68;3.35;;;18.10;99.90;;;;;;6248259;22;20709;-80
2022/05/24 08:49:20;;;;;;;7.78;3.42;;;17.80;99.90;;;;;;6247893;22;20086;-80
2022/05/24 08:51:55;;;;;;;5.38;2.97;;;17.90;99.90;;;;;;6222225;22;20096;-79
2022/05/24 08:54:39;;;;;;;5.70;3.38;;;18.00;99.90;;;;;;6223103;22;20057;-80
2022/05/24 08:57:09;;;;;;;7.28;3.08;;;18.30;99.90;;;;;;6248193;22;20038;-79
2022/05/24 08:59:40;;;;;;;7.05;2.97;;;18.60;99.90;;;;;;6275055;22;20019;-80
2022/05/24 09:02:06;;;;;;;7.07;2.53;;;18.60;99.90;;;;;;6253486;22;20022;-80
2022/05/24 09:04:32;;;;;;;7.03;2.50;;;18.30;99.90;;;;;;6275522;22;20008;-79
2022/05/24 09:07:05;;;;;;;4.70;2.78;;;18.10;99.90;;;;;;6274364;22;20026;-80
2022/05/24 09:09:53;;;;;;;7.57;3.40;;;17.80;99.90;;;;;;6248460;22;20012;-79
2022/05/24 09:12:50;;;;;;;7.00;3.00;;;17.60;99.90;;;;;;6274559;22;20016;-80
2022/05/24 09:15:34;;;;;;;8.18;3.00;;;17.20;99.90;;;;;;6272703;22;20012;-79
2022/05/24 09:18:31;;;;;;;4.35;2.88;;;17.00;99.90;;;;;;6272765;22;20054;-77
2022/05/24 09:20:57;;;;;;;6.40;2.95;;;16.70;99.90;;;;;;6273706;22;20065;-78
2022/05/24 09:23:31;;;;;;;5.38;3.33;;;16.60;99.90;;;;;;6272126;22;20020;-77
2022/05/24 09:26:09;;;;;;;8.43;3.15;;;16.60;99.90;;;;;;6272522;22;20459;-78
2022/05/24 09:28:47;;;;;;;4.68;2.65;;;16.50;99.90;;;;;;6272579;22;20015;-79
2022/05/24 09:31:24;;;;;;;6.20;2.78;;;16.70;99.90;;;;;;6272121;22;20019;-79
2022/05/24 09:33:56;;;;;;;7.63;3.15;;;16.80;99.90;;;;;;6275239;22;20047;-82
2022/05/24 09:36:32;;;;;;;4.53;2.90;;;16.90;99.90;;;;;;6275389;22;20007;-81
2022/05/24 09:38:59;;;;;;;6.88;2.80;;;17.10;99.90;;;;;;6275290;22;20012;-82
2022/05/24 09:41:24;;;;;;;4.38;2.80;;;17.20;99.90;;;;;;6274976;22;20043;-81
2022/05/24 09:44:06;;;;;;;5.93;3.10;;;17.30;99.90;;;;;;6282350;22;20069;-81
2022/05/24 09:46:35;;;;;;;6.07;3.00;;;17.30;99.90;;;;;;6299255;22;20022;-82
2022/05/24 09:49:24;;;;;;;3.78;2.45;;;17.10;99.90;;;;;;6299260;22;20003;-82
2022/05/24 09:51:54;;;;;;;5.13;3.08;;;16.90;99.90;;;;;;6258742;22;20015;-81
2022/05/24 09:54:24;;;;;;;6.97;2.30;;;16.80;99.90;;;;;;6249223;22;20014;-81
2022/05/24 09:57:09;;;;;;;2.75;1.80;;;16.70;99.90;;;;;;6249368;22;20444;-79
2022/05/24 09:59:38;;;;;;;3.83;1.10;;;16.70;99.90;;;;;;6274560;22;20027;-79
2022/05/24 10:02:32;;;;;;;1.85;0.80;;;16.80;99.90;;;;;;6274345;22;20011;-80
2022/05/24 10:05:02;;;;;;;3.67;0.98;;;16.90;99.90;;;;;;6249226;22;20480;-80
2022/05/24 10:07:35;;;;;;;5.70;1.08;;;16.90;99.90;;;;;;6248963;22;20015;-80
2022/05/24 10:10:24;;;;;;;2.25;1.13;;;17.10;99.90;;;;;;6274209;22;20012;-82
2022/05/24 10:13:05;;;;;;;3.38;1.33;;;17.40;99.90;;;;;;6276384;22;20035;-81
2022/05/24 10:16:12;;;;;;;7.15;1.33;;;17.30;99.90;;;;;;6249009;22;20030;-81
2022/05/24 10:19:01;;;;;;;4.60;1.20;;;17.10;99.90;;;;;;6275053;22;20038;-82
2022/05/24 10:21:44;;;;;;;2.55;0.98;;;16.80;99.90;;;;;;6248069;22;20012;-81
2022/05/24 10:24:38;;;;;;;2.75;1.00;;;16.50;99.90;;;;;;6274099;22;20018;-82
2022/05/24 10:27:13;;;;;;;3.10;1.20;;;16.70;99.90;;;;;;6248997;22;20008;-81
2022/05/24 10:30:05;;;;;;;1.38;0.88;;;17.20;99.90;;;;;;6249139;22;20011;-82
2022/05/24 10:39:04;;;;;;;0.50;0.40;;;17.30;99.90;;;;;;6255645;22;20016;-83
2022/05/24 10:41:52;;;;;;;0.20;0.20;;;16.70;99.90;;;;;;6274310;22;20012;-83
2022/05/24 10:44:29;;;;;;;3.22;0.45;;;16.20;99.90;;;;;;6275734;22;20018;-84
2022/05/24 10:47:04;;;;;;;0.40;0.30;;;15.70;99.90;;;;;;6218492;23;20071;-82
2022/05/24 10:49:30;;;;;;;0.40;0.35;;;15.40;99.90;;;;;;6217967;23;20012;-82
2022/05/24 10:52:11;;;;;;;1.90;0.50;;;15.00;99.90;;;;;;6217803;23;20012;-82
2022/05/24 10:54:46;;;;;;;0.50;0.50;;;14.80;99.90;;;;;;6244079;23;20087;-82
2022/05/24 10:57:29;;;;;;;0.75;0.75;;;14.60;99.90;;;;;;6218259;23;20012;-81
2022/05/24 11:00:13;;;;;;;0.55;0.52;;;14.40;99.90;;;;;;6218849;23;20016;-82
2022/05/24 11:06:37;;;;;;;2.47;1.27;;;14.20;99.90;;;;;;6242783;23;20024;-82
2022/05/24 11:09:11;;;;;;;2.38;1.20;;;14.20;99.90;;;;;;6213905;23;20016;-83
2022/05/24 11:11:46;;;;;;;1.40;1.10;;;14.30;99.90;;;;;;6242723;22;20393;-83
2022/05/24 11:14:28;;;;;;;4.55;1.48;;;14.30;99.90;;;;;;6244097;23;20011;-83
2022/05/24 11:16:55;;;;;;;6.78;1.77;;;14.30;99.90;;;;;;6244610;23;20083;-83
2022/05/24 11:19:24;;;;;;;2.85;1.63;;;14.10;99.90;;;;;;6218315;23;20483;-83
2022/05/24 11:22:18;;;;;;;6.03;1.83;;;14.20;99.90;;;;;;6243434;22;20015;-84
2022/05/24 11:24:56;;;;;;;5.95;2.10;;;14.20;99.90;;;;;;6244440;23;20012;-83
2022/05/24 11:27:52;;;;;;;2.30;1.50;;;14.20;99.90;;;;;;6245769;22;20011;-84
2022/05/24 11:30:28;;;;;;;4.07;2.00;;;14.20;99.90;;;;;;6257949;22;20012;-84
2022/05/24 11:33:05;;;;;;;4.88;2.25;;;14.20;99.90;;;;;;6218676;23;20018;-84
2022/05/24 11:35:39;;;;;;;4.32;2.58;;;14.10;99.90;;;;;;6244255;23;20024;-84
2022/05/24 11:38:16;;;;;;;4.57;2.30;;;14.00;99.90;;;;;;6244493;23;20012;-85
2022/05/24 11:41:01;;;;;;;4.40;1.98;;;13.90;99.90;;;;;;6244441;23;20012;-82
2022/05/24 11:43:36;;;;;;;1.73;1.20;;;13.90;99.90;;;;;;6221756;23;20465;-82
2022/05/24 11:46:09;;;;;;;2.60;1.40;;;13.80;99.90;;;;;;6245501;23;20055;-82
2022/05/24 11:48:50;;;;;;;2.75;1.30;;;14.00;99.90;;;;;;6245807;23;20057;-82
2022/05/24 11:51:34;;;;;;;0.85;0.73;;;14.10;99.90;;;;;;6246478;22;20019;-81
2022/05/24 11:54:02;;;;;;;2.88;1.67;;;14.10;99.90;;;;;;6218822;23;20537;-80
2022/05/24 11:56:29;;;;;;;2.45;0.95;;;14.10;99.90;;;;;;6245306;23;20012;-82
2022/05/24 11:59:03;;;;;;;3.90;1.20;;;14.20;99.90;;;;;;6220282;23;20023;-82
2022/05/24 12:01:58;;;;;;;1.30;1.10;;;14.30;99.90;;;;;;6241164;22;20074;-82
2022/05/24 12:10:22;;;;;;;1.63;0.95;;;15.50;99.90;;;;;;6188457;23;20513;-82
2022/05/24 12:13:03;;;;;;;1.95;0.93;;;15.90;99.90;;;;;;6189016;23;20143;-82
2022/05/24 12:15:34;;;;;;;3.22;1.17;;;16.20;99.90;;;;;;6188727;23;20013;-81
2022/05/24 12:17:59;;;;;;;1.60;0.98;;;16.40;99.90;;;;;;6188437;23;20112;-81
2022/05/24 12:20:34;;;;;;;3.55;1.20;;;16.70;99.90;;;;;;6187773;23;20044;-80
2022/05/24 12:23:14;;;;;;;3.45;1.30;;;17.00;99.90;;;;;;6163527;23;20151;-80
2022/05/24 12:26:01;;;;;;;4.57;1.55;;;17.10;99.90;;;;;;6188994;23;20019;-82
2022/05/24 12:28:35;;;;;;;1.65;1.20;;;17.00;99.90;;;;;;6189701;23;20027;-81
2022/05/24 12:31:18;;;;;;;1.95;0.73;;;16.90;99.90;;;;;;6215102;23;20062;-81
2022/05/24 12:33:54;;;;;;;3.58;1.70;;;17.20;99.90;;;;;;6189444;23;20074;-82
2022/05/24 12:36:33;;;;;;;4.05;3.30;;;17.40;99.90;;;;;;6165623;23;20009;-81
2022/05/24 12:39:01;;;;;;;1.90;1.10;;;17.80;99.90;;;;;;6165669;23;20092;-82
2022/05/24 12:41:29;;;;;;;1.60;1.23;;;17.90;99.90;;;;;;6189676;23;20386;-82
2022/05/24 12:44:01;;;;;;;0.63;0.60;;;17.90;99.90;;;;;;6191306;23;20417;-81
2022/05/24 12:46:28;;;;;;;;;;;18.00;99.90;;;;;;6189121;23;20074;-82
2022/05/24 12:49:07;;;;;;;1.98;1.13;;;17.90;99.90;;;;;;6214413;23;19912;-82
2022/05/24 12:51:34;;;;;;;1.95;0.60;;;18.10;99.90;;;;;;6165436;23;20022;-82
2022/05/24 12:54:14;;;;;;;1.02;0.80;;;18.40;99.90;;;;;;6163952;23;20017;-82
2022/05/24 12:56:51;;;;;;;4.75;0.50;;;18.60;99.90;;;;;;6164627;23;20009;-83
2022/05/24 12:59:16;;;;;;;1.50;0.80;;;18.80;99.90;;;;;;6163059;23;20015;-82
2022/05/24 13:01:44;;;;;;;1.58;0.60;;;18.80;99.90;;;;;;6195184;23;20400;-83
2022/05/24 13:04:27;;;;;;;4.53;0.80;;;18.90;99.90;;;;;;6242717;23;20035;-81
2022/05/24 13:06:53;;;;;;;1.30;0.73;;;19.00;99.90;;;;;;6218589;23;20019;-81
2022/05/24 13:09:28;;;;;;;2.78;1.00;;;19.10;99.90;;;;;;6244964;23;20551;-82
2022/05/24 13:12:04;;;;;;;2.22;1.02;;;19.00;99.90;;;;;;6219060;23;20013;-82
2022/05/24 13:14:56;;;;;;;2.38;1.02;;;19.00;99.90;;;;;;6219019;23;20054;-82
2022/05/24 13:17:25;;;;;;;1.35;1.15;;;19.20;99.90;;;;;;6219169;23;20009;-80
2022/05/24 13:20:03;;;;;;;1.58;1.10;;;19.20;99.90;;;;;;6243122;23;20457;-81
2022/05/24 13:22:52;;;;;;;1.60;1.25;;;19.10;99.90;;;;;;6245326;22;20460;-81
2022/05/24 13:25:22;;;;;;;1.85;1.40;;;19.00;99.90;;;;;;6243853;23;20019;-81
2022/05/24 13:28:08;;;;;;;1.98;1.33;;;18.70;99.90;;;;;;6243916;23;20015;-82
2022/05/24 13:33:47;;;;;;;1.98;1.10;;;18.50;99.90;;;;;;6243974;23;20453;-82
2022/05/24 13:36:13;;;;;;;1.35;0.90;;;18.40;99.90;;;;;;6244716;23;20012;-82
2022/05/24 13:38:40;;;;;;;3.03;0.90;;;18.40;99.90;;;;;;6245461;23;20345;-83
2022/05/24 13:41:08;;;;;;;2.03;0.82;;;18.40;99.90;;;;;;6243228;22;20022;-83